createdAt,value
2022-12-08T00:00:20.177Z,3.54
2022-12-08T00:00:52.426Z,3.57
2022-12-08T00:01:24.541Z,3.57
2022-12-08T00:01:56.783Z,3.58
2022-12-08T00:02:28.910Z,3.54
2022-12-08T00:03:01.061Z,3.54
2022-12-08T00:03:33.233Z,3.54
2022-12-08T00:04:05.173Z,3.54
2022-12-08T00:04:37.331Z,3.53
2022-12-08T00:05:09.450Z,3.53
2022-12-08T00:05:41.582Z,3.53
2022-12-08T00:06:13.700Z,3.52
2022-12-08T00:06:45.809Z,3.52
2022-12-08T00:07:17.950Z,3.53
2022-12-08T00:07:50.134Z,3.49
2022-12-08T00:08:22.259Z,3.49
2022-12-08T00:08:54.325Z,3.50
2022-12-08T00:09:26.473Z,3.52
2022-12-08T00:09:58.605Z,3.49
2022-12-08T00:10:58.836Z,3.47
2022-12-08T00:11:02.974Z,3.49
2022-12-08T00:11:35.093Z,3.47
2022-12-08T00:12:07.215Z,3.46
2022-12-08T00:12:39.387Z,3.44
2022-12-08T00:13:12.399Z,3.46
2022-12-08T00:13:44.600Z,3.47
2022-12-08T00:14:16.743Z,3.46
2022-12-08T00:14:48.876Z,3.44
2022-12-08T00:15:21.036Z,3.46
2022-12-08T00:15:53.176Z,3.44
2022-12-08T00:16:25.318Z,3.44
2022-12-08T00:16:57.498Z,3.43
2022-12-08T00:17:29.568Z,3.44
2022-12-08T00:18:01.699Z,3.44
2022-12-08T00:18:33.829Z,3.43
2022-12-08T00:19:06.032Z,3.43
2022-12-08T00:19:38.282Z,3.44
2022-12-08T00:20:10.400Z,3.44
2022-12-08T00:20:43.536Z,3.43
2022-12-08T00:21:15.710Z,3.42
2022-12-08T00:21:47.831Z,3.42
2022-12-08T00:22:19.972Z,3.40
2022-12-08T00:22:52.150Z,3.40
2022-12-08T00:23:24.269Z,3.42
2022-12-08T00:23:56.409Z,3.43
2022-12-08T00:24:28.528Z,3.42
2022-12-08T00:25:00.872Z,3.40
2022-12-08T00:25:32.832Z,3.40
2022-12-08T00:26:05.090Z,3.40
2022-12-08T00:26:37.246Z,3.40
2022-12-08T00:27:09.368Z,3.40
2022-12-08T00:27:41.491Z,3.39
2022-12-08T00:28:13.719Z,3.36
2022-12-08T00:28:45.839Z,3.36
2022-12-08T00:29:18.018Z,3.34
2022-12-08T00:29:50.113Z,3.34
2022-12-08T00:30:22.228Z,3.34
2022-12-08T00:30:54.376Z,3.36
2022-12-08T00:31:26.551Z,3.34
2022-12-08T00:31:58.683Z,3.34
2022-12-08T00:32:30.799Z,3.34
2022-12-08T00:33:02.977Z,3.34
2022-12-08T00:33:35.083Z,3.33
2022-12-08T00:34:07.232Z,3.31
2022-12-08T00:34:39.509Z,3.33
2022-12-08T00:35:11.638Z,3.30
2022-12-08T00:35:43.821Z,3.28
2022-12-08T00:36:15.981Z,3.30
2022-12-08T00:36:48.176Z,3.27
2022-12-08T00:37:20.317Z,3.28
2022-12-08T00:37:56.154Z,3.25
2022-12-08T00:38:24.646Z,3.30
2022-12-08T00:38:56.794Z,3.28
2022-12-08T00:39:28.932Z,3.27
2022-12-08T00:40:01.158Z,3.27
2022-12-08T00:40:33.198Z,3.28
2022-12-08T00:41:05.322Z,3.28
2022-12-08T00:41:37.448Z,3.30
2022-12-08T00:42:09.586Z,3.30
2022-12-08T00:42:41.685Z,3.28
2022-12-08T00:43:13.808Z,3.30
2022-12-08T00:43:45.919Z,3.27
2022-12-08T00:44:18.038Z,3.25
2022-12-08T00:44:50.143Z,3.28
2022-12-08T00:45:22.253Z,3.25
2022-12-08T00:45:54.450Z,3.25
2022-12-08T00:46:26.571Z,3.24
2022-12-08T00:46:58.672Z,3.25
2022-12-08T00:47:30.844Z,3.24
2022-12-08T00:48:02.964Z,3.28
2022-12-08T00:48:35.097Z,3.27
2022-12-08T00:49:07.236Z,3.28
2022-12-08T00:49:39.347Z,3.24
2022-12-08T00:50:11.480Z,3.25
2022-12-08T00:50:43.714Z,3.23
2022-12-08T00:51:15.918Z,3.24
2022-12-08T00:51:48.080Z,3.23
2022-12-08T00:52:20.208Z,3.23
2022-12-08T00:52:52.328Z,3.23
2022-12-08T00:53:24.569Z,3.23
2022-12-08T00:53:56.730Z,3.20
2022-12-08T00:54:28.891Z,3.21
2022-12-08T00:55:01.055Z,3.20
2022-12-08T00:55:33.198Z,3.20
2022-12-08T00:56:05.352Z,3.20
2022-12-08T00:56:37.468Z,3.21
2022-12-08T00:57:09.621Z,3.20
2022-12-08T00:57:41.749Z,3.21
2022-12-08T00:58:13.870Z,3.21
2022-12-08T00:58:46.052Z,3.23
2022-12-08T00:59:18.211Z,3.23
2022-12-08T00:59:50.361Z,3.24
2022-12-08T01:00:22.568Z,3.25
2022-12-08T01:00:54.899Z,3.25
2022-12-08T01:01:27.030Z,3.27
2022-12-08T01:01:59.116Z,3.27
2022-12-08T01:02:31.260Z,3.28
2022-12-08T01:03:03.594Z,3.27
2022-12-08T01:03:35.784Z,3.25
2022-12-08T01:04:07.861Z,3.27
2022-12-08T01:04:40.024Z,3.24
2022-12-08T01:05:12.339Z,3.24
2022-12-08T01:05:44.451Z,3.25
2022-12-08T01:06:16.604Z,3.25
2022-12-08T01:06:48.761Z,3.27
2022-12-08T01:07:20.911Z,3.30
2022-12-08T01:07:53.150Z,3.27
2022-12-08T01:08:25.342Z,3.27
2022-12-08T01:08:57.445Z,3.25
2022-12-08T01:09:29.621Z,3.25
2022-12-08T01:10:02.105Z,3.25
2022-12-08T01:10:33.911Z,3.24
2022-12-08T01:11:06.063Z,3.23
2022-12-08T01:11:38.219Z,3.23
2022-12-08T01:12:10.381Z,3.23
2022-12-08T01:12:42.525Z,3.23
2022-12-08T01:13:14.667Z,3.21
2022-12-08T01:13:46.855Z,3.23
2022-12-08T01:14:19.106Z,3.23
2022-12-08T01:14:51.271Z,3.23
2022-12-08T01:15:23.435Z,3.23
2022-12-08T01:15:55.641Z,3.23
2022-12-08T01:16:27.839Z,3.24
2022-12-08T01:16:59.982Z,3.25
2022-12-08T01:17:32.088Z,3.25
2022-12-08T01:18:04.276Z,3.27
2022-12-08T01:18:36.419Z,3.27
2022-12-08T01:19:08.602Z,3.27
2022-12-08T01:19:40.756Z,3.27
2022-12-08T01:20:12.917Z,3.30
2022-12-08T01:20:45.066Z,3.28
2022-12-08T01:21:17.203Z,3.30
2022-12-08T01:21:49.393Z,3.30
2022-12-08T01:22:21.508Z,3.31
2022-12-08T01:22:53.658Z,3.33
2022-12-08T01:23:25.792Z,3.34
2022-12-08T01:23:57.917Z,3.36
2022-12-08T01:24:30.055Z,3.42
2022-12-08T01:25:02.180Z,3.42
2022-12-08T01:25:34.317Z,3.42
2022-12-08T01:26:06.406Z,3.42
2022-12-08T01:26:38.547Z,3.43
2022-12-08T01:27:10.714Z,3.42
2022-12-08T01:27:42.853Z,3.40
2022-12-08T01:28:15.011Z,3.42
2022-12-08T01:28:47.179Z,3.43
2022-12-08T01:29:19.316Z,3.43
2022-12-08T01:29:51.626Z,3.42
2022-12-08T01:30:23.775Z,3.40
2022-12-08T01:30:56.065Z,3.39
2022-12-08T01:31:28.212Z,3.34
2022-12-08T01:32:00.304Z,3.34
2022-12-08T01:32:32.461Z,3.36
2022-12-08T01:33:04.621Z,3.36
2022-12-08T01:33:36.757Z,3.36
2022-12-08T01:34:08.904Z,3.34
2022-12-08T01:34:41.036Z,3.34
2022-12-08T01:35:13.190Z,3.39
2022-12-08T01:35:45.346Z,3.39
2022-12-08T01:36:17.475Z,3.42
2022-12-08T01:36:49.605Z,3.39
2022-12-08T01:37:21.711Z,3.43
2022-12-08T01:37:53.972Z,3.40
2022-12-08T01:38:26.183Z,3.43
2022-12-08T01:38:58.333Z,3.40
2022-12-08T01:39:30.449Z,3.40
2022-12-08T01:40:02.944Z,3.39
2022-12-08T01:40:34.850Z,3.40
2022-12-08T01:41:06.995Z,3.40
2022-12-08T01:41:39.132Z,3.40
2022-12-08T01:42:11.223Z,3.40
2022-12-08T01:42:43.358Z,3.42
2022-12-08T01:43:15.539Z,3.40
2022-12-08T01:43:47.662Z,3.40
2022-12-08T01:44:19.830Z,3.40
2022-12-08T01:44:52.002Z,3.40
2022-12-08T01:45:24.106Z,3.39
2022-12-08T01:45:56.286Z,3.42
2022-12-08T01:46:28.413Z,3.42
2022-12-08T01:47:00.497Z,3.43
2022-12-08T01:47:32.648Z,3.44
2022-12-08T01:48:04.833Z,3.43
2022-12-08T01:48:36.926Z,3.43
2022-12-08T01:49:09.069Z,3.44
2022-12-08T01:49:41.196Z,3.42
2022-12-08T01:50:13.322Z,3.43
2022-12-08T01:50:45.453Z,3.44
2022-12-08T01:51:17.603Z,3.46
2022-12-08T01:51:49.890Z,3.44
2022-12-08T01:52:22.033Z,3.46
2022-12-08T01:52:54.257Z,3.46
2022-12-08T01:53:26.393Z,3.47
2022-12-08T01:53:58.548Z,3.44
2022-12-08T01:54:30.755Z,3.47
2022-12-08T01:55:02.889Z,3.49
2022-12-08T01:55:35.053Z,3.47
2022-12-08T01:56:07.195Z,3.46
2022-12-08T01:56:39.360Z,3.47
2022-12-08T01:57:11.499Z,3.47
2022-12-08T01:57:43.636Z,3.47
2022-12-08T01:58:15.764Z,3.47
2022-12-08T01:58:47.897Z,3.49
2022-12-08T01:59:20.040Z,3.46
2022-12-08T01:59:52.162Z,3.46
2022-12-08T02:00:24.307Z,3.49
2022-12-08T02:00:56.543Z,3.44
2022-12-08T02:01:28.712Z,3.47
2022-12-08T02:02:00.898Z,3.47
2022-12-08T02:02:33.065Z,3.46
2022-12-08T02:03:05.222Z,3.46
2022-12-08T02:03:37.258Z,3.46
2022-12-08T02:04:09.423Z,3.46
2022-12-08T02:04:41.540Z,3.44
2022-12-08T02:05:13.665Z,3.44
2022-12-08T02:05:45.814Z,3.46
2022-12-08T02:06:17.935Z,3.47
2022-12-08T02:06:50.121Z,3.47
2022-12-08T02:07:22.241Z,3.46
2022-12-08T02:07:54.436Z,3.46
2022-12-08T02:08:26.617Z,3.46
2022-12-08T02:08:58.644Z,3.47
2022-12-08T02:09:30.797Z,3.44
2022-12-08T02:10:03.393Z,3.46
2022-12-08T02:10:35.077Z,3.44
2022-12-08T02:11:07.228Z,3.46
2022-12-08T02:11:39.372Z,3.47
2022-12-08T02:12:11.522Z,3.44
2022-12-08T02:12:43.661Z,3.49
2022-12-08T02:13:15.793Z,3.47
2022-12-08T02:13:48.060Z,3.50
2022-12-08T02:14:20.185Z,3.52
2022-12-08T02:14:52.316Z,3.53
2022-12-08T02:15:24.500Z,3.53
2022-12-08T02:15:56.728Z,3.53
2022-12-08T02:16:28.864Z,3.53
2022-12-08T02:17:00.929Z,3.53
2022-12-08T02:17:33.068Z,3.53
2022-12-08T02:18:05.200Z,3.53
2022-12-08T02:18:37.348Z,3.53
2022-12-08T02:19:30.238Z,3.53
2022-12-08T02:19:41.712Z,3.53
2022-12-08T02:20:13.954Z,3.53
2022-12-08T02:20:46.087Z,3.57
2022-12-08T02:21:18.220Z,3.57
2022-12-08T02:21:50.381Z,3.57
2022-12-08T02:22:22.514Z,3.58
2022-12-08T02:22:54.689Z,3.58
2022-12-08T02:23:26.851Z,3.58
2022-12-08T02:23:59.024Z,3.60
2022-12-08T02:24:31.198Z,3.60
2022-12-08T02:25:03.375Z,3.58
2022-12-08T02:25:35.641Z,3.60
2022-12-08T02:26:07.793Z,3.54
2022-12-08T02:26:39.927Z,3.60
2022-12-08T02:27:12.047Z,3.60
2022-12-08T02:27:44.202Z,3.58
2022-12-08T02:28:16.339Z,3.61
2022-12-08T02:28:48.514Z,3.62
2022-12-08T02:29:20.629Z,3.62
2022-12-08T02:29:52.784Z,3.62
2022-12-08T02:30:24.888Z,3.61
2022-12-08T02:30:57.131Z,3.64
2022-12-08T02:31:29.262Z,3.61
2022-12-08T02:32:01.401Z,3.62
2022-12-08T02:32:33.542Z,3.64
2022-12-08T02:33:05.706Z,3.67
2022-12-08T02:33:37.858Z,3.65
2022-12-08T02:34:09.987Z,3.67
2022-12-08T02:34:42.129Z,3.67
2022-12-08T02:35:14.298Z,3.67
2022-12-08T02:35:46.425Z,3.65
2022-12-08T02:36:18.545Z,3.65
2022-12-08T02:36:50.765Z,3.64
2022-12-08T02:37:22.916Z,3.67
2022-12-08T02:37:55.435Z,3.65
2022-12-08T02:38:27.567Z,3.67
2022-12-08T02:38:59.692Z,3.65
2022-12-08T02:39:31.841Z,3.64
2022-12-08T02:40:04.422Z,3.64
2022-12-08T02:40:36.133Z,3.68
2022-12-08T02:41:08.258Z,3.67
2022-12-08T02:41:40.425Z,3.68
2022-12-08T02:42:12.570Z,3.70
2022-12-08T02:42:44.698Z,3.68
2022-12-08T02:43:16.830Z,3.67
2022-12-08T02:43:49.113Z,3.70
2022-12-08T02:44:21.240Z,3.70
2022-12-08T02:44:53.410Z,3.70
2022-12-08T02:45:25.546Z,3.68
2022-12-08T02:45:57.938Z,3.68
2022-12-08T02:46:30.066Z,3.71
2022-12-08T02:47:02.222Z,3.71
2022-12-08T02:47:34.353Z,3.70
2022-12-08T02:48:06.500Z,3.68
2022-12-08T02:48:38.619Z,3.68
2022-12-08T02:49:10.755Z,3.68
2022-12-08T02:49:42.906Z,3.68
2022-12-08T02:50:15.048Z,3.70
2022-12-08T02:50:47.171Z,3.70
2022-12-08T02:51:19.310Z,3.71
2022-12-08T02:51:51.496Z,3.70
2022-12-08T02:52:23.613Z,3.70
2022-12-08T02:52:55.751Z,3.70
2022-12-08T02:53:27.873Z,3.71
2022-12-08T02:54:00.007Z,3.71
2022-12-08T02:54:32.126Z,3.71
2022-12-08T02:55:04.328Z,3.72
2022-12-08T02:55:36.556Z,3.72
2022-12-08T02:56:08.708Z,3.72
2022-12-08T02:56:40.842Z,3.72
2022-12-08T02:57:12.963Z,3.75
2022-12-08T02:57:45.097Z,3.71
2022-12-08T02:58:17.355Z,3.71
2022-12-08T02:58:49.491Z,3.76
2022-12-08T02:59:21.642Z,3.72
2022-12-08T02:59:53.796Z,3.75
2022-12-08T03:00:25.910Z,3.72
2022-12-08T03:00:58.035Z,3.71
2022-12-08T03:01:30.210Z,3.71
2022-12-08T03:02:02.406Z,3.72
2022-12-08T03:02:34.563Z,3.72
2022-12-08T03:03:06.708Z,3.75
2022-12-08T03:03:38.798Z,3.72
2022-12-08T03:04:10.930Z,3.72
2022-12-08T03:04:43.075Z,3.75
2022-12-08T03:05:15.268Z,3.72
2022-12-08T03:05:47.431Z,3.75
2022-12-08T03:06:19.564Z,3.75
2022-12-08T03:06:51.696Z,3.75
2022-12-08T03:07:23.900Z,3.78
2022-12-08T03:07:56.176Z,3.75
2022-12-08T03:08:28.394Z,3.75
2022-12-08T03:09:00.468Z,3.78
2022-12-08T03:09:32.638Z,3.79
2022-12-08T03:10:05.047Z,3.78
2022-12-08T03:10:36.958Z,3.80
2022-12-08T03:11:09.105Z,3.79
2022-12-08T03:11:41.298Z,3.79
2022-12-08T03:12:13.444Z,3.79
2022-12-08T03:12:45.589Z,3.79
2022-12-08T03:13:17.728Z,3.78
2022-12-08T03:13:49.910Z,3.78
2022-12-08T03:14:22.023Z,3.78
2022-12-08T03:14:54.126Z,3.78
2022-12-08T03:15:26.252Z,3.76
2022-12-08T03:15:58.421Z,3.79
2022-12-08T03:16:30.588Z,3.78
2022-12-08T03:17:02.775Z,3.78
2022-12-08T03:17:34.903Z,3.76
2022-12-08T03:18:07.056Z,3.78
2022-12-08T03:18:39.188Z,3.75
2022-12-08T03:19:11.329Z,3.76
2022-12-08T03:19:43.468Z,3.75
2022-12-08T03:20:15.618Z,3.78
2022-12-08T03:20:47.749Z,3.78
2022-12-08T03:21:19.880Z,3.78
2022-12-08T03:21:52.042Z,3.76
2022-12-08T03:22:24.197Z,3.75
2022-12-08T03:22:56.328Z,3.76
2022-12-08T03:23:28.462Z,3.76
2022-12-08T03:24:00.641Z,3.80
2022-12-08T03:24:32.765Z,3.79
2022-12-08T03:25:04.894Z,3.79
2022-12-08T03:25:37.059Z,3.80
2022-12-08T03:26:09.196Z,3.80
2022-12-08T03:26:41.328Z,3.82
2022-12-08T03:27:13.453Z,3.83
2022-12-08T03:27:45.715Z,3.85
2022-12-08T03:28:17.861Z,3.83
2022-12-08T03:28:50.022Z,3.83
2022-12-08T03:29:22.154Z,3.83
2022-12-08T03:29:54.273Z,3.85
2022-12-08T03:30:26.416Z,3.82
2022-12-08T03:30:58.587Z,3.83
2022-12-08T03:31:30.735Z,3.85
2022-12-08T03:32:02.804Z,3.88
2022-12-08T03:32:34.968Z,3.86
2022-12-08T03:33:07.096Z,3.85
2022-12-08T03:33:39.233Z,3.85
2022-12-08T03:34:11.352Z,3.85
2022-12-08T03:34:43.481Z,3.83
2022-12-08T03:35:15.620Z,3.83
2022-12-08T03:35:47.774Z,3.83
2022-12-08T03:36:19.939Z,3.83
2022-12-08T03:36:52.072Z,3.83
2022-12-08T03:37:24.206Z,3.83
2022-12-08T03:37:56.319Z,3.85
2022-12-08T03:38:28.445Z,3.85
2022-12-08T03:39:00.637Z,3.83
2022-12-08T03:39:32.765Z,3.85
2022-12-08T03:40:05.154Z,3.83
2022-12-08T03:40:37.071Z,3.86
2022-12-08T03:41:09.210Z,3.83
2022-12-08T03:41:41.378Z,3.85
2022-12-08T03:42:13.546Z,3.83
2022-12-08T03:42:45.703Z,3.82
2022-12-08T03:43:17.864Z,3.82
2022-12-08T03:43:50.007Z,3.83
2022-12-08T03:44:22.180Z,3.83
2022-12-08T03:44:54.393Z,3.83
2022-12-08T03:45:26.562Z,3.83
2022-12-08T03:45:58.734Z,3.83
2022-12-08T03:46:31.955Z,3.82
2022-12-08T03:47:04.094Z,3.85
2022-12-08T03:47:36.219Z,3.83
2022-12-08T03:48:08.380Z,3.85
2022-12-08T03:48:40.501Z,3.85
2022-12-08T03:49:12.643Z,3.85
2022-12-08T03:49:44.778Z,3.83
2022-12-08T03:50:16.935Z,3.83
2022-12-08T03:50:49.088Z,3.83
2022-12-08T03:51:21.236Z,3.82
2022-12-08T03:51:53.387Z,3.82
2022-12-08T03:52:25.522Z,3.82
2022-12-08T03:52:57.634Z,3.80
2022-12-08T03:53:29.746Z,3.82
2022-12-08T03:54:01.922Z,3.83
2022-12-08T03:54:34.078Z,3.83
2022-12-08T03:55:06.227Z,3.83
2022-12-08T03:55:38.404Z,3.83
2022-12-08T03:56:10.538Z,3.82
2022-12-08T03:56:42.714Z,3.83
2022-12-08T03:57:14.845Z,3.82
2022-12-08T03:57:47.212Z,3.85
2022-12-08T03:58:19.308Z,3.83
2022-12-08T03:58:51.435Z,3.86
2022-12-08T03:59:23.589Z,3.86
2022-12-08T03:59:55.778Z,3.86
2022-12-08T04:00:27.925Z,3.86
2022-12-08T04:01:00.070Z,3.85
2022-12-08T04:01:32.267Z,3.86
2022-12-08T04:02:04.394Z,3.86
2022-12-08T04:02:36.537Z,3.86
2022-12-08T04:03:08.724Z,3.88
2022-12-08T04:03:40.899Z,3.85
2022-12-08T04:04:13.468Z,3.85
2022-12-08T04:04:45.893Z,3.83
2022-12-08T04:05:18.416Z,3.82
2022-12-08T04:05:50.673Z,3.86
2022-12-08T04:06:22.941Z,3.85
2022-12-08T04:06:55.386Z,3.85
2022-12-08T04:07:27.825Z,3.86
2022-12-08T04:08:00.165Z,3.83
2022-12-08T04:08:32.399Z,3.85
2022-12-08T04:09:04.611Z,3.83
2022-12-08T04:09:36.929Z,3.82
2022-12-08T04:10:09.134Z,3.80
2022-12-08T04:10:41.231Z,3.82
2022-12-08T04:11:13.359Z,3.82
2022-12-08T04:11:45.477Z,3.82
2022-12-08T04:12:17.603Z,3.80
2022-12-08T04:12:49.726Z,3.80
2022-12-08T04:13:21.865Z,3.82
2022-12-08T04:13:53.991Z,3.82
2022-12-08T04:14:26.144Z,3.83
2022-12-08T04:14:58.271Z,3.82
2022-12-08T04:15:30.397Z,3.83
2022-12-08T04:16:02.612Z,3.82
2022-12-08T04:16:34.823Z,3.83
2022-12-08T04:17:06.849Z,3.83
2022-12-08T04:17:38.970Z,3.82
2022-12-08T04:18:11.106Z,3.80
2022-12-08T04:18:43.251Z,3.83
2022-12-08T04:19:15.417Z,3.82
2022-12-08T04:19:47.558Z,3.82
2022-12-08T04:20:19.671Z,3.85
2022-12-08T04:20:51.789Z,3.82
2022-12-08T04:21:23.929Z,3.82
2022-12-08T04:21:56.052Z,3.82
2022-12-08T04:22:28.195Z,3.82
2022-12-08T04:23:00.380Z,3.82
2022-12-08T04:23:32.505Z,3.82
2022-12-08T04:24:04.653Z,3.80
2022-12-08T04:24:36.772Z,3.83
2022-12-08T04:25:08.913Z,3.82
2022-12-08T04:25:41.036Z,3.83
2022-12-08T04:26:13.216Z,3.82
2022-12-08T04:26:45.326Z,3.85
2022-12-08T04:27:17.497Z,3.80
2022-12-08T04:27:49.636Z,3.83
2022-12-08T04:28:21.754Z,3.80
2022-12-08T04:28:53.897Z,3.85
2022-12-08T04:29:26.009Z,3.80
2022-12-08T04:29:58.122Z,3.80
2022-12-08T04:30:30.332Z,3.82
2022-12-08T04:31:02.524Z,3.80
2022-12-08T04:31:34.664Z,3.79
2022-12-08T04:32:06.757Z,3.80
2022-12-08T04:32:44.322Z,3.79
2022-12-08T04:33:12.335Z,3.79
2022-12-08T04:33:44.503Z,3.80
2022-12-08T04:34:16.644Z,3.79
2022-12-08T04:34:48.765Z,3.80
2022-12-08T04:35:21.010Z,3.78
2022-12-08T04:35:53.159Z,3.80
2022-12-08T04:36:25.295Z,3.79
2022-12-08T04:36:57.465Z,3.79
2022-12-08T04:37:29.569Z,3.82
2022-12-08T04:38:01.745Z,3.82
2022-12-08T04:38:33.866Z,3.80
2022-12-08T04:39:05.985Z,3.82
2022-12-08T04:39:38.185Z,3.83
2022-12-08T04:40:10.313Z,3.82
2022-12-08T04:40:42.439Z,3.82
2022-12-08T04:41:14.558Z,3.80
2022-12-08T04:41:46.695Z,3.83
2022-12-08T04:42:18.831Z,3.82
2022-12-08T04:42:50.939Z,3.82
2022-12-08T04:43:23.103Z,3.80
2022-12-08T04:43:55.227Z,3.79
2022-12-08T04:44:27.374Z,3.78
2022-12-08T04:44:59.512Z,3.79
2022-12-08T04:45:31.676Z,3.76
2022-12-08T04:46:03.812Z,3.80
2022-12-08T04:46:40.214Z,3.78
2022-12-08T04:47:08.184Z,3.80
2022-12-08T04:47:40.255Z,3.78
2022-12-08T04:48:12.395Z,3.80
2022-12-08T04:48:44.496Z,3.82
2022-12-08T04:49:16.704Z,3.83
2022-12-08T04:49:48.825Z,3.82
2022-12-08T04:50:20.958Z,3.82
2022-12-08T04:50:53.170Z,3.85
2022-12-08T04:51:25.288Z,3.86
2022-12-08T04:51:57.394Z,3.86
2022-12-08T04:52:29.569Z,3.86
2022-12-08T04:53:01.711Z,3.86
2022-12-08T04:53:33.844Z,3.88
2022-12-08T04:54:05.981Z,3.86
2022-12-08T04:54:38.099Z,3.88
2022-12-08T04:55:10.266Z,3.86
2022-12-08T04:55:42.429Z,3.86
2022-12-08T04:56:14.586Z,3.86
2022-12-08T04:56:46.723Z,3.88
2022-12-08T04:57:18.841Z,3.88
2022-12-08T04:57:50.964Z,3.88
2022-12-08T04:58:23.086Z,3.86
2022-12-08T04:58:55.194Z,3.88
2022-12-08T04:59:27.350Z,3.86
2022-12-08T04:59:59.465Z,3.89
2022-12-08T05:00:31.691Z,3.86
2022-12-08T05:01:03.934Z,3.86
2022-12-08T05:01:36.100Z,3.85
2022-12-08T05:02:08.325Z,3.86
2022-12-08T05:02:40.455Z,3.86
2022-12-08T05:03:12.528Z,3.86
2022-12-08T05:03:44.681Z,3.86
2022-12-08T05:04:16.832Z,3.86
2022-12-08T05:04:48.968Z,3.85
2022-12-08T05:05:21.202Z,3.86
2022-12-08T05:05:53.375Z,3.89
2022-12-08T05:06:25.494Z,3.86
2022-12-08T05:06:57.697Z,3.88
2022-12-08T05:07:29.834Z,3.86
2022-12-08T05:08:02.162Z,3.89
2022-12-08T05:08:34.314Z,3.90
2022-12-08T05:09:06.387Z,3.92
2022-12-08T05:09:38.535Z,3.94
2022-12-08T05:10:10.662Z,3.92
2022-12-08T05:10:42.776Z,3.92
2022-12-08T05:11:14.997Z,3.94
2022-12-08T05:11:49.071Z,3.94
2022-12-08T05:12:19.295Z,3.94
2022-12-08T05:12:51.427Z,3.92
2022-12-08T05:13:23.564Z,3.90
2022-12-08T05:13:55.694Z,3.90
2022-12-08T05:14:27.856Z,3.89
2022-12-08T05:14:59.986Z,3.88
2022-12-08T05:15:32.143Z,3.88
2022-12-08T05:16:04.381Z,3.88
2022-12-08T05:16:36.506Z,3.86
2022-12-08T05:17:09.878Z,3.89
2022-12-08T05:17:40.838Z,3.88
2022-12-08T05:18:12.982Z,3.88
2022-12-08T05:18:45.107Z,3.89
2022-12-08T05:19:17.255Z,3.90
2022-12-08T05:19:49.428Z,3.89
2022-12-08T05:20:21.562Z,3.92
2022-12-08T05:20:53.686Z,3.90
2022-12-08T05:21:25.888Z,3.96
2022-12-08T05:21:58.040Z,3.94
2022-12-08T05:22:30.182Z,3.94
2022-12-08T05:23:02.308Z,3.90
2022-12-08T05:23:34.431Z,3.89
2022-12-08T05:24:06.587Z,3.90
2022-12-08T05:24:42.543Z,3.90
2022-12-08T05:25:10.825Z,3.90
2022-12-08T05:25:42.938Z,3.89
2022-12-08T05:26:15.171Z,3.90
2022-12-08T05:26:47.290Z,3.90
2022-12-08T05:27:19.436Z,3.90
2022-12-08T05:27:55.277Z,3.92
2022-12-08T05:28:43.971Z,3.92
2022-12-08T05:28:55.885Z,3.94
2022-12-08T05:29:28.011Z,3.94
2022-12-08T05:30:00.193Z,3.92
2022-12-08T05:30:32.337Z,3.92
2022-12-08T05:31:04.561Z,3.90
2022-12-08T05:31:36.737Z,3.90
2022-12-08T05:32:08.928Z,3.88
2022-12-08T05:32:41.014Z,3.90
2022-12-08T05:33:13.153Z,3.89
2022-12-08T05:33:45.289Z,3.89
2022-12-08T05:34:17.424Z,3.90
2022-12-08T05:34:49.538Z,3.88
2022-12-08T05:35:21.664Z,3.89
2022-12-08T05:35:53.771Z,3.86
2022-12-08T05:36:25.924Z,3.86
2022-12-08T05:36:58.115Z,3.86
2022-12-08T05:37:34.445Z,3.86
2022-12-08T05:38:06.677Z,3.86
2022-12-08T05:38:39.045Z,3.85
2022-12-08T05:39:11.178Z,3.85
2022-12-08T05:39:43.303Z,3.86
2022-12-08T05:40:15.448Z,3.85
2022-12-08T05:40:47.584Z,3.85
2022-12-08T05:41:19.763Z,3.83
2022-12-08T05:41:51.899Z,3.83
2022-12-08T05:42:25.144Z,3.83
2022-12-08T05:42:56.197Z,3.83
2022-12-08T05:43:28.411Z,3.82
2022-12-08T05:44:00.540Z,3.85
2022-12-08T05:44:32.706Z,3.85
2022-12-08T05:45:04.856Z,3.83
2022-12-08T05:45:37.070Z,3.82
2022-12-08T05:46:09.146Z,3.85
2022-12-08T05:46:41.273Z,3.86
2022-12-08T05:47:13.442Z,3.86
2022-12-08T05:47:45.609Z,3.83
2022-12-08T05:48:17.778Z,3.83
2022-12-08T05:48:49.975Z,3.83
2022-12-08T05:49:22.130Z,3.83
2022-12-08T05:49:54.261Z,3.83
2022-12-08T05:50:26.473Z,3.85
2022-12-08T05:50:58.681Z,3.85
2022-12-08T05:51:30.814Z,3.83
2022-12-08T05:52:02.984Z,3.82
2022-12-08T05:52:35.116Z,3.86
2022-12-08T05:53:07.222Z,3.85
2022-12-08T05:53:39.370Z,3.88
2022-12-08T05:54:11.526Z,3.86
2022-12-08T05:54:43.675Z,3.90
2022-12-08T05:55:15.812Z,3.89
2022-12-08T05:55:47.926Z,3.90
2022-12-08T05:56:20.098Z,3.89
2022-12-08T05:56:52.202Z,3.89
2022-12-08T05:57:24.336Z,3.89
2022-12-08T05:57:56.489Z,3.89
2022-12-08T05:58:28.723Z,3.88
2022-12-08T05:59:00.848Z,3.88
2022-12-08T05:59:33.005Z,3.88
2022-12-08T06:00:05.567Z,3.88
2022-12-08T06:00:37.381Z,3.86
2022-12-08T06:01:09.508Z,3.89
2022-12-08T06:01:41.716Z,3.89
2022-12-08T06:02:14.007Z,3.89
2022-12-08T06:02:46.045Z,3.89
2022-12-08T06:03:18.113Z,3.89
2022-12-08T06:03:50.215Z,3.92
2022-12-08T06:04:22.370Z,3.92
2022-12-08T06:04:54.488Z,3.94
2022-12-08T06:05:26.613Z,3.94
2022-12-08T06:05:58.765Z,3.94
2022-12-08T06:06:30.927Z,3.90
2022-12-08T06:07:03.053Z,3.90
2022-12-08T06:07:35.305Z,3.90
2022-12-08T06:08:07.504Z,3.90
2022-12-08T06:08:39.595Z,3.88
2022-12-08T06:09:11.732Z,3.86
2022-12-08T06:09:43.867Z,3.89
2022-12-08T06:10:16.003Z,3.88
2022-12-08T06:10:48.248Z,3.86
2022-12-08T06:11:20.388Z,3.88
2022-12-08T06:11:52.510Z,3.86
2022-12-08T06:12:24.680Z,3.88
2022-12-08T06:12:56.853Z,3.89
2022-12-08T06:13:28.987Z,3.86
2022-12-08T06:14:01.147Z,3.88
2022-12-08T06:14:33.280Z,3.86
2022-12-08T06:15:05.422Z,3.86
2022-12-08T06:15:37.602Z,3.86
2022-12-08T06:16:09.820Z,3.86
2022-12-08T06:16:41.947Z,3.88
2022-12-08T06:17:14.020Z,3.88
2022-12-08T06:17:46.193Z,3.86
2022-12-08T06:18:18.307Z,3.88
2022-12-08T06:18:50.442Z,3.88
2022-12-08T06:19:22.606Z,3.85
2022-12-08T06:19:54.745Z,3.85
2022-12-08T06:20:26.905Z,3.85
2022-12-08T06:20:59.031Z,3.83
2022-12-08T06:21:31.219Z,3.83
2022-12-08T06:22:03.333Z,3.83
2022-12-08T06:22:35.461Z,3.83
2022-12-08T06:23:07.589Z,3.85
2022-12-08T06:23:39.743Z,3.83
2022-12-08T06:24:11.872Z,3.85
2022-12-08T06:24:43.999Z,3.88
2022-12-08T06:25:16.120Z,3.85
2022-12-08T06:25:48.268Z,3.88
2022-12-08T06:26:20.418Z,3.85
2022-12-08T06:26:52.550Z,3.88
2022-12-08T06:27:24.668Z,3.88
2022-12-08T06:27:56.797Z,3.88
2022-12-08T06:28:28.939Z,3.88
2022-12-08T06:29:01.058Z,3.88
2022-12-08T06:29:33.198Z,3.85
2022-12-08T06:30:05.551Z,3.86
2022-12-08T06:30:37.476Z,3.85
2022-12-08T06:31:09.605Z,3.88
2022-12-08T06:31:41.788Z,3.85
2022-12-08T06:32:13.876Z,3.86
2022-12-08T06:32:46.027Z,3.85
2022-12-08T06:33:18.149Z,3.86
2022-12-08T06:33:50.269Z,3.86
2022-12-08T06:34:22.388Z,3.85
2022-12-08T06:34:54.598Z,3.86
2022-12-08T06:35:26.712Z,3.86
2022-12-08T06:35:58.897Z,3.83
2022-12-08T06:36:31.001Z,3.82
2022-12-08T06:37:03.166Z,3.83
2022-12-08T06:37:35.298Z,3.85
2022-12-08T06:38:07.685Z,3.83
2022-12-08T06:38:43.311Z,3.85
2022-12-08T06:39:11.984Z,3.83
2022-12-08T06:39:44.149Z,3.85
2022-12-08T06:40:16.281Z,3.85
2022-12-08T06:40:48.448Z,3.85
2022-12-08T06:41:20.580Z,3.88
2022-12-08T06:41:52.772Z,3.85
2022-12-08T06:42:24.877Z,3.85
2022-12-08T06:42:57.034Z,3.85
2022-12-08T06:43:29.184Z,3.85
2022-12-08T06:44:01.327Z,3.85
2022-12-08T06:44:33.472Z,3.85
2022-12-08T06:45:05.602Z,3.85
2022-12-08T06:45:37.814Z,3.80
2022-12-08T06:46:09.946Z,3.80
2022-12-08T06:46:42.036Z,3.79
2022-12-08T06:47:14.175Z,3.80
2022-12-08T06:47:46.323Z,3.79
2022-12-08T06:48:18.446Z,3.79
2022-12-08T06:48:50.646Z,3.79
2022-12-08T06:49:22.752Z,3.79
2022-12-08T06:49:54.902Z,3.78
2022-12-08T06:50:27.022Z,3.78
2022-12-08T06:50:59.194Z,3.79
2022-12-08T06:51:31.400Z,3.79
2022-12-08T06:52:03.578Z,3.78
2022-12-08T06:52:40.823Z,3.79
2022-12-08T06:53:07.870Z,3.78
2022-12-08T06:53:39.972Z,3.79
2022-12-08T06:54:12.127Z,3.82
2022-12-08T06:54:44.257Z,3.80
2022-12-08T06:55:35.515Z,3.80
2022-12-08T06:55:59.102Z,3.82
2022-12-08T06:56:20.699Z,3.79
2022-12-08T06:56:52.851Z,3.80
2022-12-08T06:57:24.979Z,3.78
2022-12-08T06:57:57.260Z,3.79
2022-12-08T06:58:29.272Z,3.79
2022-12-08T06:59:01.375Z,3.79
2022-12-08T06:59:33.529Z,3.79
2022-12-08T07:00:05.894Z,3.79
2022-12-08T07:00:37.772Z,3.79
2022-12-08T07:01:10.012Z,3.80
2022-12-08T07:01:42.172Z,3.80
2022-12-08T07:02:14.252Z,3.79
2022-12-08T07:02:46.414Z,3.80
2022-12-08T07:03:18.485Z,3.80
2022-12-08T07:03:50.660Z,3.80
2022-12-08T07:04:22.783Z,3.80
2022-12-08T07:04:54.957Z,3.80
2022-12-08T07:05:27.091Z,3.79
2022-12-08T07:06:03.728Z,3.78
2022-12-08T07:06:31.419Z,3.79
2022-12-08T07:07:03.552Z,3.78
2022-12-08T07:07:35.676Z,3.79
2022-12-08T07:08:08.026Z,3.79